createdAt,value
2022-11-24T00:01:47.839Z,10.73
2022-11-24T00:04:20.188Z,10.71
2022-11-24T00:06:49.016Z,10.69
2022-11-24T00:09:21.894Z,10.66
2022-11-24T00:11:50.611Z,10.66
2022-11-24T00:14:20.038Z,10.69
2022-11-24T00:16:50.629Z,10.72
2022-11-24T00:19:22.218Z,10.72
2022-11-24T00:21:51.480Z,10.74
2022-11-24T00:24:20.703Z,10.67
2022-11-24T00:26:59.985Z,10.77
2022-11-24T00:29:29.204Z,10.81
2022-11-24T00:32:12.093Z,10.82
2022-11-24T00:34:42.967Z,10.81
2022-11-24T00:37:13.338Z,10.82
2022-11-24T00:39:42.690Z,10.88
2022-11-24T00:42:12.877Z,10.95
2022-11-24T00:44:42.247Z,10.89
2022-11-24T00:47:11.670Z,10.86
2022-11-24T00:49:41.126Z,10.88
2022-11-24T00:52:10.147Z,10.91
2022-11-24T00:54:40.152Z,10.84
2022-11-24T00:57:09.590Z,10.94
2022-11-24T00:59:38.726Z,10.90
2022-11-24T01:02:09.215Z,10.99
2022-11-24T01:04:38.938Z,10.98
2022-11-24T01:07:08.471Z,10.95
2022-11-24T01:09:38.258Z,10.93
2022-11-24T01:12:09.202Z,10.93
2022-11-24T01:14:51.819Z,10.80
2022-11-24T01:17:21.198Z,10.92
2022-11-24T01:19:51.174Z,10.92
2022-11-24T01:22:20.308Z,11.01
2022-11-24T01:24:49.128Z,10.97
2022-11-24T01:27:17.750Z,10.93
2022-11-24T01:29:48.675Z,10.90
2022-11-24T01:32:17.374Z,10.88
2022-11-24T01:34:46.929Z,10.85
2022-11-24T01:37:16.181Z,10.73
2022-11-24T01:39:45.568Z,10.76
2022-11-24T01:42:15.007Z,10.74
2022-11-24T01:44:46.438Z,10.67
2022-11-24T01:47:34.021Z,10.63
2022-11-24T01:50:17.044Z,10.67
2022-11-24T01:52:57.363Z,10.67
2022-11-24T01:55:38.924Z,10.59
2022-11-24T01:58:16.549Z,10.60
2022-11-24T02:00:47.876Z,10.67
2022-11-24T02:03:27.821Z,10.63
2022-11-24T02:06:32.669Z,10.63
2022-11-24T02:09:23.575Z,10.69
2022-11-24T02:11:56.398Z,10.66
2022-11-24T02:14:29.362Z,10.64
2022-11-24T02:16:58.626Z,10.67
2022-11-24T02:19:41.915Z,10.76
2022-11-24T02:22:21.914Z,10.87
2022-11-24T02:25:02.083Z,10.78
2022-11-24T02:27:31.500Z,10.79
2022-11-24T02:30:00.510Z,10.76
2022-11-24T02:32:31.797Z,10.80
2022-11-24T02:35:08.246Z,10.72
2022-11-24T02:37:51.743Z,10.67
2022-11-24T02:40:26.858Z,10.61
2022-11-24T02:43:06.353Z,10.60
2022-11-24T02:45:35.241Z,10.55
2022-11-24T02:48:28.852Z,10.51
2022-11-24T02:50:57.467Z,10.47
2022-11-24T02:53:26.111Z,10.49
2022-11-24T02:55:54.604Z,10.53
2022-11-24T02:58:23.009Z,10.48
2022-11-24T03:00:57.930Z,10.45
2022-11-24T03:03:29.520Z,10.45
2022-11-24T03:05:58.293Z,10.41
2022-11-24T03:08:30.447Z,10.37
2022-11-24T03:10:59.461Z,10.34
2022-11-24T03:13:28.694Z,10.29
2022-11-24T03:16:00.288Z,10.23
2022-11-24T03:18:29.353Z,10.22
2022-11-24T03:21:13.185Z,10.23
2022-11-24T03:23:41.703Z,10.23
2022-11-24T03:26:12.510Z,10.23
2022-11-24T03:28:42.216Z,10.22
2022-11-24T03:31:12.840Z,10.12
2022-11-24T03:33:41.956Z,10.06
2022-11-24T03:36:10.920Z,10.12
2022-11-24T03:38:42.491Z,10.10
2022-11-24T03:41:11.414Z,10.09
2022-11-24T03:43:43.752Z,10.11
2022-11-24T03:46:13.513Z,10.13
2022-11-24T03:48:42.261Z,10.14
2022-11-24T03:51:12.258Z,10.14
2022-11-24T03:53:41.440Z,10.12
2022-11-24T03:56:10.931Z,10.12
2022-11-24T03:58:39.717Z,10.11
2022-11-24T04:01:08.780Z,10.09
2022-11-24T04:03:37.839Z,10.06
2022-11-24T04:06:07.121Z,10.04
2022-11-24T04:08:36.238Z,10.04
2022-11-24T04:11:10.255Z,10.05
2022-11-24T04:13:39.151Z,10.04
2022-11-24T04:16:08.269Z,10.00
2022-11-24T04:18:37.057Z,10.01
2022-11-24T04:21:05.701Z,10.02
2022-11-24T04:23:34.165Z,9.99
2022-11-24T04:26:02.714Z,9.93
2022-11-24T04:28:31.195Z,9.98
2022-11-24T04:31:03.712Z,10.03
2022-11-24T04:33:33.415Z,10.04
2022-11-24T04:36:01.737Z,9.99
2022-11-24T04:39:25.671Z,9.98
2022-11-24T04:41:30.458Z,9.98
2022-11-24T04:43:59.066Z,9.98
2022-11-24T04:46:27.825Z,9.94
2022-11-24T04:52:39.008Z,9.96
2022-11-24T04:55:08.988Z,9.94
2022-11-24T04:57:37.635Z,9.89
2022-11-24T05:00:06.907Z,9.85
2022-11-24T05:02:35.173Z,9.84
2022-11-24T05:05:09.027Z,9.83
2022-11-24T05:07:37.821Z,9.83
2022-11-24T05:10:25.438Z,9.81
2022-11-24T05:12:56.681Z,9.79
2022-11-24T05:15:25.242Z,9.75
2022-11-24T05:17:53.798Z,9.72
2022-11-24T05:20:22.522Z,9.70
2022-11-24T05:22:51.518Z,9.69
2022-11-24T05:25:21.053Z,9.70
2022-11-24T05:27:49.481Z,9.69
2022-11-24T05:30:17.965Z,9.66
2022-11-24T05:32:46.550Z,9.62
2022-11-24T05:35:17.432Z,9.61
2022-11-24T05:37:46.027Z,9.60
2022-11-24T05:40:15.192Z,9.59
2022-11-24T05:42:47.639Z,9.58
2022-11-24T05:45:19.778Z,9.51
2022-11-24T05:47:51.317Z,9.41
2022-11-24T05:50:23.915Z,9.39
2022-11-24T05:52:54.190Z,9.38
2022-11-24T05:55:23.191Z,9.53
2022-11-24T05:57:59.297Z,9.58
2022-11-24T06:00:31.054Z,9.64
2022-11-24T06:03:00.299Z,9.61
2022-11-24T06:05:30.504Z,9.49
2022-11-24T06:08:00.770Z,9.33
2022-11-24T06:10:29.963Z,9.29
2022-11-24T06:12:58.287Z,9.23
2022-11-24T06:15:27.214Z,9.14
2022-11-24T06:17:56.883Z,9.11
2022-11-24T06:20:31.169Z,9.06
2022-11-24T06:23:06.182Z,9.07
2022-11-24T06:25:34.918Z,9.07
2022-11-24T06:28:05.515Z,9.12
2022-11-24T06:30:34.188Z,9.21
2022-11-24T06:33:02.748Z,9.19
2022-11-24T06:35:31.621Z,9.15
2022-11-24T06:38:03.091Z,9.15
2022-11-24T06:40:32.079Z,9.17
2022-11-24T06:43:03.072Z,9.09
2022-11-24T06:45:32.097Z,9.10
2022-11-24T06:48:00.684Z,9.06
2022-11-24T06:50:33.583Z,9.07
2022-11-24T06:53:05.960Z,9.12
2022-11-24T06:55:41.296Z,9.28
2022-11-24T06:58:09.726Z,9.41
2022-11-24T07:00:39.903Z,9.25
2022-11-24T07:03:16.983Z,9.39
2022-11-24T07:05:47.161Z,9.43
2022-11-24T07:08:22.893Z,9.44
2022-11-24T07:10:52.879Z,9.43
2022-11-24T07:13:21.580Z,9.38
2022-11-24T07:15:49.747Z,9.25
2022-11-24T07:18:18.010Z,9.19
2022-11-24T07:20:46.833Z,9.20
2022-11-24T07:23:15.330Z,9.20
2022-11-24T07:25:44.433Z,9.15
2022-11-24T07:28:15.047Z,9.15
2022-11-24T07:30:43.243Z,9.23
2022-11-24T07:33:12.916Z,9.31
2022-11-24T07:35:45.267Z,9.39
2022-11-24T07:38:13.959Z,9.52
2022-11-24T07:40:43.243Z,9.74
2022-11-24T07:43:15.807Z,9.94
2022-11-24T07:45:52.776Z,10.19
2022-11-24T07:48:26.603Z,10.49
2022-11-24T07:50:56.480Z,10.81
2022-11-24T07:53:38.666Z,11.03
2022-11-24T07:56:08.254Z,11.18
2022-11-24T07:58:38.004Z,11.32
2022-11-24T08:01:13.881Z,11.42
2022-11-24T08:03:43.672Z,11.50
2022-11-24T08:06:24.458Z,11.67
2022-11-24T08:08:55.366Z,11.85
2022-11-24T08:11:26.556Z,12.03
2022-11-24T08:13:55.069Z,12.31
2022-11-24T08:16:23.651Z,12.33
2022-11-24T08:18:54.072Z,12.34
2022-11-24T08:21:23.779Z,12.37
2022-11-24T08:23:59.451Z,12.29
2022-11-24T08:26:28.678Z,12.18
2022-11-24T08:29:08.079Z,12.05
2022-11-24T08:31:41.947Z,11.98
2022-11-24T08:34:14.979Z,11.92
2022-11-24T08:36:43.128Z,11.79
2022-11-24T08:39:15.899Z,11.58
2022-11-24T08:41:45.091Z,11.50
2022-11-24T08:44:16.119Z,11.40
2022-11-24T08:46:45.288Z,11.34
2022-11-24T08:49:15.282Z,11.17
2022-11-24T08:51:43.678Z,11.03
2022-11-24T08:54:15.398Z,11.01
2022-11-24T08:56:43.794Z,10.94
2022-11-24T08:59:15.144Z,10.86
2022-11-24T09:01:44.926Z,10.68
2022-11-24T09:04:14.611Z,10.44
2022-11-24T09:06:42.882Z,10.50
2022-11-24T09:09:12.090Z,10.53
2022-11-24T09:11:40.376Z,10.47
2022-11-24T09:14:10.425Z,10.50
2022-11-24T09:16:40.934Z,10.52
2022-11-24T09:19:10.343Z,10.44
2022-11-24T09:21:40.127Z,10.57
2022-11-24T09:24:12.414Z,10.68
2022-11-24T09:26:46.139Z,10.85
2022-11-24T09:29:16.570Z,10.93
2022-11-24T09:31:44.983Z,10.89
2022-11-24T09:34:15.806Z,10.84
2022-11-24T09:36:44.209Z,10.95
2022-11-24T09:39:12.711Z,11.19
2022-11-24T09:42:18.346Z,11.33
2022-11-24T09:45:00.449Z,11.34
2022-11-24T09:48:16.387Z,11.39
2022-11-24T09:50:48.606Z,11.40
2022-11-24T09:53:22.912Z,11.33
2022-11-24T09:55:55.526Z,11.32
2022-11-24T09:59:14.676Z,11.51
2022-11-24T10:01:45.536Z,11.85
2022-11-24T10:04:24.189Z,12.18
2022-11-24T10:07:17.108Z,12.75
2022-11-24T10:10:18.517Z,13.09
2022-11-24T10:13:18.330Z,13.10
2022-11-24T10:16:04.855Z,13.12
2022-11-24T10:19:02.295Z,13.39
2022-11-24T10:21:48.889Z,13.74
2022-11-24T10:24:19.578Z,14.20
2022-11-24T10:27:10.881Z,14.59
2022-11-24T10:29:41.663Z,14.88
2022-11-24T10:32:26.859Z,15.13
2022-11-24T10:35:16.046Z,15.20
2022-11-24T10:37:53.065Z,15.22
2022-11-24T10:43:28.187Z,15.57
2022-11-24T10:46:24.702Z,15.46
2022-11-24T10:49:05.515Z,15.34
2022-11-24T10:51:53.720Z,15.23
2022-11-24T10:54:24.579Z,15.22
2022-11-24T10:56:55.225Z,15.24
2022-11-24T10:59:28.029Z,15.31
2022-11-24T11:01:56.786Z,15.48
2022-11-24T11:04:36.388Z,15.38
2022-11-24T11:07:15.536Z,15.20
2022-11-24T11:09:45.672Z,15.16
2022-11-24T11:12:45.727Z,14.98
2022-11-24T11:15:31.750Z,14.99
2022-11-24T11:18:01.491Z,14.90
2022-11-24T11:20:33.346Z,14.92
2022-11-24T11:23:16.699Z,14.91
2022-11-24T11:26:16.857Z,14.86
2022-11-24T11:35:05.991Z,14.37
2022-11-24T11:37:34.918Z,14.34
2022-11-24T11:40:04.028Z,14.28
2022-11-24T11:45:30.821Z,14.26
2022-11-24T11:48:02.021Z,14.17
2022-11-24T11:51:21.048Z,14.04
2022-11-24T11:54:07.532Z,13.93
2022-11-24T11:56:45.787Z,13.79
2022-11-24T11:59:52.753Z,13.69
2022-11-24T12:02:39.358Z,13.40
2022-11-24T12:05:10.848Z,13.00
2022-11-24T12:07:48.848Z,12.70
2022-11-24T12:10:31.070Z,12.58
2022-11-24T12:13:21.169Z,12.46
2022-11-24T12:16:11.918Z,12.33
2022-11-24T12:22:18.511Z,11.92
2022-11-24T12:25:12.565Z,11.93
2022-11-24T12:28:11.900Z,11.89
2022-11-24T12:31:10.808Z,11.78
2022-11-24T12:34:00.923Z,11.79
2022-11-24T12:36:52.393Z,11.89
2022-11-24T12:39:20.750Z,11.90
2022-11-24T12:42:12.485Z,11.78
2022-11-24T12:45:06.582Z,11.71
2022-11-24T12:48:05.911Z,11.76
2022-11-24T12:50:39.973Z,11.81
2022-11-24T12:53:34.862Z,11.91
2022-11-24T12:56:09.756Z,11.89
2022-11-24T13:02:55.435Z,11.82
2022-11-24T13:06:05.546Z,11.61
2022-11-24T13:08:37.220Z,11.61
2022-11-24T13:11:24.176Z,11.70
2022-11-24T13:14:01.141Z,11.72
2022-11-24T13:16:44.429Z,11.62
2022-11-24T13:20:12.379Z,11.74
2022-11-24T13:22:47.694Z,11.80
2022-11-24T13:25:37.791Z,11.83
2022-11-24T13:29:00.682Z,11.89
2022-11-24T13:31:39.682Z,11.94
2022-11-24T13:34:39.249Z,11.89
2022-11-24T13:37:39.911Z,11.71
2022-11-24T13:40:14.410Z,11.55
2022-11-24T13:42:55.311Z,11.64
2022-11-24T13:45:54.191Z,11.59
2022-11-24T13:53:13.481Z,11.46
2022-11-24T13:56:45.055Z,11.30
2022-11-24T13:59:27.684Z,11.14
2022-11-24T14:01:59.440Z,11.13
2022-11-24T14:04:31.120Z,10.99
2022-11-24T14:07:15.235Z,10.83
2022-11-24T14:09:48.563Z,10.76
2022-11-24T14:12:31.802Z,10.61
2022-11-24T14:15:28.668Z,10.45
2022-11-24T14:17:57.743Z,10.29
2022-11-24T14:20:35.250Z,10.16
2022-11-24T14:23:06.573Z,10.09
2022-11-24T14:25:36.252Z,10.04
2022-11-24T14:28:35.705Z,9.87
2022-11-24T14:31:09.468Z,9.79
2022-11-24T14:33:37.987Z,9.74
2022-11-24T14:36:22.526Z,9.58
2022-11-24T14:38:51.717Z,9.51
2022-11-24T14:41:28.789Z,9.45
2022-11-24T14:44:28.799Z,9.33
2022-11-24T14:47:19.010Z,9.23
2022-11-24T14:49:47.371Z,9.09
2022-11-24T14:52:18.799Z,8.95
2022-11-24T14:55:22.884Z,8.92
2022-11-24T14:57:54.118Z,8.77
2022-11-24T15:00:32.408Z,8.71
2022-11-24T15:03:00.810Z,8.71
2022-11-24T15:05:50.980Z,8.76
2022-11-24T15:08:20.521Z,8.72
2022-11-24T15:10:49.627Z,8.63
2022-11-24T15:17:02.908Z,8.58
2022-11-24T15:19:36.505Z,8.57
2022-11-24T15:22:46.271Z,8.57
2022-11-24T15:25:26.737Z,8.54
2022-11-24T15:27:56.686Z,8.52
2022-11-24T15:30:25.046Z,8.59
2022-11-24T15:33:05.291Z,8.58
2022-11-24T15:35:34.619Z,8.50
2022-11-24T15:38:02.872Z,8.53
2022-11-24T15:40:31.927Z,8.53
2022-11-24T15:43:06.256Z,8.56
2022-11-24T15:45:39.243Z,8.59
2022-11-24T17:57:13.807Z,8.21
2022-11-24T17:59:42.120Z,8.20
2022-11-24T18:02:10.604Z,8.18
2022-11-24T18:04:39.033Z,8.17
2022-11-24T18:15:39.707Z,8.17
2022-11-24T18:18:08.266Z,8.16
2022-11-24T18:20:36.609Z,8.13
2022-11-24T18:23:06.378Z,8.09
2022-11-24T18:25:37.392Z,8.07
2022-11-24T18:28:05.760Z,8.11
2022-11-24T18:30:34.360Z,8.07
2022-11-24T18:33:36.507Z,8.10
2022-11-24T18:36:07.516Z,8.10
2022-11-24T18:38:39.634Z,8.12
2022-11-24T18:41:13.089Z,8.12
2022-11-24T18:43:42.956Z,8.17
